sensor_id;sensor_type;location;lat;lon;timestamp;P1;durP1;ratioP1;P2;durP2;ratioP2
48805;SDS011;34625;47.176;27.548;2023-10-13T00:00:31;2.95;;;1.80;;
48805;SDS011;34625;47.176;27.548;2023-10-13T00:03:09;4.68;;;2.25;;
48805;SDS011;34625;47.176;27.548;2023-10-13T00:05:41;6.80;;;2.35;;
48805;SDS011;34625;47.176;27.548;2023-10-13T00:08:09;5.53;;;2.85;;
48805;SDS011;34625;47.176;27.548;2023-10-13T00:10:36;5.70;;;2.78;;
48805;SDS011;34625;47.176;27.548;2023-10-13T00:13:02;4.03;;;2.25;;
48805;SDS011;34625;47.176;27.548;2023-10-13T00:15:44;5.13;;;2.53;;
48805;SDS011;34625;47.176;27.548;2023-10-13T00:18:26;3.00;;;2.22;;
48805;SDS011;34625;47.176;27.548;2023-10-13T00:20:58;6.75;;;2.65;;
48805;SDS011;34625;47.176;27.548;2023-10-13T00:23:25;3.40;;;2.25;;
48805;SDS011;34625;47.176;27.548;2023-10-13T00:25:54;4.60;;;2.40;;
48805;SDS011;34625;47.176;27.548;2023-10-13T00:28:27;8.77;;;2.17;;
48805;SDS011;34625;47.176;27.548;2023-10-13T00:31:01;4.88;;;2.10;;
48805;SDS011;34625;47.176;27.548;2023-10-13T00:33:38;6.15;;;2.45;;
48805;SDS011;34625;47.176;27.548;2023-10-13T00:36:07;7.50;;;2.33;;
48805;SDS011;34625;47.176;27.548;2023-10-13T00:38:35;3.10;;;1.75;;
48805;SDS011;34625;47.176;27.548;2023-10-13T00:41:01;4.15;;;2.22;;
48805;SDS011;34625;47.176;27.548;2023-10-13T00:43:47;5.05;;;2.30;;
48805;SDS011;34625;47.176;27.548;2023-10-13T00:46:34;5.78;;;2.55;;
48805;SDS011;34625;47.176;27.548;2023-10-13T00:49:04;5.00;;;2.00;;
48805;SDS011;34625;47.176;27.548;2023-10-13T00:51:31;3.95;;;2.15;;
48805;SDS011;34625;47.176;27.548;2023-10-13T00:54:01;4.95;;;1.92;;
48805;SDS011;34625;47.176;27.548;2023-10-13T00:56:33;4.57;;;2.30;;
48805;SDS011;34625;47.176;27.548;2023-10-13T00:58:59;5.03;;;2.40;;
48805;SDS011;34625;47.176;27.548;2023-10-13T01:01:29;4.70;;;2.33;;
48805;SDS011;34625;47.176;27.548;2023-10-13T01:03:59;6.88;;;2.03;;
48805;SDS011;34625;47.176;27.548;2023-10-13T01:06:29;5.47;;;2.20;;
48805;SDS011;34625;47.176;27.548;2023-10-13T01:08:59;2.42;;;1.67;;
48805;SDS011;34625;47.176;27.548;2023-10-13T01:11:47;2.45;;;1.73;;
48805;SDS011;34625;47.176;27.548;2023-10-13T01:14:18;7.63;;;2.10;;
48805;SDS011;34625;47.176;27.548;2023-10-13T01:16:48;5.75;;;2.47;;
48805;SDS011;34625;47.176;27.548;2023-10-13T01:19:18;5.68;;;1.80;;
48805;SDS011;34625;47.176;27.548;2023-10-13T01:24:21;7.32;;;2.20;;
48805;SDS011;34625;47.176;27.548;2023-10-13T01:26:49;5.35;;;2.40;;
48805;SDS011;34625;47.176;27.548;2023-10-13T01:29:18;2.58;;;1.98;;
48805;SDS011;34625;47.176;27.548;2023-10-13T01:31:45;4.55;;;2.17;;
48805;SDS011;34625;47.176;27.548;2023-10-13T01:34:13;7.60;;;2.67;;
48805;SDS011;34625;47.176;27.548;2023-10-13T01:36:54;4.38;;;2.60;;
48805;SDS011;34625;47.176;27.548;2023-10-13T01:39:22;2.35;;;2.03;;
48805;SDS011;34625;47.176;27.548;2023-10-13T01:41:54;3.22;;;1.90;;
48805;SDS011;34625;47.176;27.548;2023-10-13T01:44:29;4.57;;;2.40;;
48805;SDS011;34625;47.176;27.548;2023-10-13T01:46:58;7.82;;;1.95;;
48805;SDS011;34625;47.176;27.548;2023-10-13T01:49:25;4.07;;;2.10;;
48805;SDS011;34625;47.176;27.548;2023-10-13T01:51:51;4.28;;;2.53;;
48805;SDS011;34625;47.176;27.548;2023-10-13T01:54:17;7.10;;;2.88;;
48805;SDS011;34625;47.176;27.548;2023-10-13T01:56:46;6.20;;;2.60;;
48805;SDS011;34625;47.176;27.548;2023-10-13T01:59:14;6.60;;;2.92;;
48805;SDS011;34625;47.176;27.548;2023-10-13T02:01:41;5.35;;;2.60;;
48805;SDS011;34625;47.176;27.548;2023-10-13T02:04:07;6.22;;;2.45;;
48805;SDS011;34625;47.176;27.548;2023-10-13T02:06:36;5.65;;;1.88;;
48805;SDS011;34625;47.176;27.548;2023-10-13T02:09:06;4.70;;;2.35;;
48805;SDS011;34625;47.176;27.548;2023-10-13T02:11:41;2.80;;;1.80;;
48805;SDS011;34625;47.176;27.548;2023-10-13T02:14:11;4.72;;;2.20;;
48805;SDS011;34625;47.176;27.548;2023-10-13T02:16:41;4.97;;;2.45;;
48805;SDS011;34625;47.176;27.548;2023-10-13T02:19:08;3.17;;;1.92;;
48805;SDS011;34625;47.176;27.548;2023-10-13T02:21:35;4.47;;;2.65;;
48805;SDS011;34625;47.176;27.548;2023-10-13T02:24:06;5.75;;;2.28;;
48805;SDS011;34625;47.176;27.548;2023-10-13T02:26:38;4.13;;;2.30;;
48805;SDS011;34625;47.176;27.548;2023-10-13T02:29:05;7.70;;;3.03;;
48805;SDS011;34625;47.176;27.548;2023-10-13T02:31:38;4.37;;;2.10;;
48805;SDS011;34625;47.176;27.548;2023-10-13T02:34:05;4.72;;;2.30;;
48805;SDS011;34625;47.176;27.548;2023-10-13T02:36:37;6.85;;;1.98;;
48805;SDS011;34625;47.176;27.548;2023-10-13T02:39:18;5.00;;;2.22;;
48805;SDS011;34625;47.176;27.548;2023-10-13T02:41:53;5.63;;;2.03;;
48805;SDS011;34625;47.176;27.548;2023-10-13T02:44:21;5.00;;;2.83;;
48805;SDS011;34625;47.176;27.548;2023-10-13T02:46:56;4.60;;;2.45;;
48805;SDS011;34625;47.176;27.548;2023-10-13T02:49:24;4.65;;;2.47;;
48805;SDS011;34625;47.176;27.548;2023-10-13T02:51:52;5.03;;;2.25;;
48805;SDS011;34625;47.176;27.548;2023-10-13T02:54:21;5.70;;;2.78;;
48805;SDS011;34625;47.176;27.548;2023-10-13T02:56:47;4.05;;;2.40;;
48805;SDS011;34625;47.176;27.548;2023-10-13T02:59:25;4.03;;;2.40;;
48805;SDS011;34625;47.176;27.548;2023-10-13T03:02:15;4.43;;;2.35;;
48805;SDS011;34625;47.176;27.548;2023-10-13T03:07:25;6.78;;;2.60;;
48805;SDS011;34625;47.176;27.548;2023-10-13T03:09:56;3.63;;;2.10;;
48805;SDS011;34625;47.176;27.548;2023-10-13T03:12:25;7.05;;;2.40;;
48805;SDS011;34625;47.176;27.548;2023-10-13T03:14:58;6.63;;;2.40;;
48805;SDS011;34625;47.176;27.548;2023-10-13T03:17:43;6.90;;;2.78;;
48805;SDS011;34625;47.176;27.548;2023-10-13T03:20:10;8.77;;;2.95;;
48805;SDS011;34625;47.176;27.548;2023-10-13T03:22:42;4.07;;;2.90;;
48805;SDS011;34625;47.176;27.548;2023-10-13T03:25:14;5.32;;;2.85;;
48805;SDS011;34625;47.176;27.548;2023-10-13T03:27:48;9.30;;;3.22;;
48805;SDS011;34625;47.176;27.548;2023-10-13T03:30:14;5.55;;;2.92;;
48805;SDS011;34625;47.176;27.548;2023-10-13T03:32:41;8.65;;;3.40;;
48805;SDS011;34625;47.176;27.548;2023-10-13T03:35:12;3.42;;;2.25;;
48805;SDS011;34625;47.176;27.548;2023-10-13T03:37:42;6.40;;;2.88;;
48805;SDS011;34625;47.176;27.548;2023-10-13T03:40:09;8.20;;;3.03;;
48805;SDS011;34625;47.176;27.548;2023-10-13T03:42:48;5.03;;;3.05;;
48805;SDS011;34625;47.176;27.548;2023-10-13T03:45:31;6.93;;;2.97;;
48805;SDS011;34625;47.176;27.548;2023-10-13T03:48:08;6.13;;;3.22;;
48805;SDS011;34625;47.176;27.548;2023-10-13T03:50:59;2.20;;;2.00;;
48805;SDS011;34625;47.176;27.548;2023-10-13T03:53:35;2.60;;;1.67;;
48805;SDS011;34625;47.176;27.548;2023-10-13T03:56:21;1.80;;;1.55;;
48805;SDS011;34625;47.176;27.548;2023-10-13T03:58:52;2.42;;;1.70;;
48805;SDS011;34625;47.176;27.548;2023-10-13T04:01:20;8.70;;;4.05;;
48805;SDS011;34625;47.176;27.548;2023-10-13T04:03:58;7.43;;;3.97;;
48805;SDS011;34625;47.176;27.548;2023-10-13T04:06:37;6.22;;;3.67;;
48805;SDS011;34625;47.176;27.548;2023-10-13T04:09:22;5.82;;;3.50;;
48805;SDS011;34625;47.176;27.548;2023-10-13T04:11:58;3.35;;;1.83;;
48805;SDS011;34625;47.176;27.548;2023-10-13T04:14:35;3.50;;;1.65;;
48805;SDS011;34625;47.176;27.548;2023-10-13T04:17:20;5.22;;;2.38;;
48805;SDS011;34625;47.176;27.548;2023-10-13T04:19:53;3.30;;;2.30;;
48805;SDS011;34625;47.176;27.548;2023-10-13T04:22:33;5.80;;;3.03;;
48805;SDS011;34625;47.176;27.548;2023-10-13T04:25:13;5.82;;;2.80;;
48805;SDS011;34625;47.176;27.548;2023-10-13T04:28:04;8.32;;;3.85;;
48805;SDS011;34625;47.176;27.548;2023-10-13T04:30:38;6.13;;;3.72;;
48805;SDS011;34625;47.176;27.548;2023-10-13T04:33:26;20.15;;;4.07;;
48805;SDS011;34625;47.176;27.548;2023-10-13T04:36:14;11.20;;;7.25;;
48805;SDS011;34625;47.176;27.548;2023-10-13T04:38:58;11.88;;;6.13;;
48805;SDS011;34625;47.176;27.548;2023-10-13T04:41:32;6.78;;;5.75;;
48805;SDS011;34625;47.176;27.548;2023-10-13T04:44:10;9.35;;;5.55;;
48805;SDS011;34625;47.176;27.548;2023-10-13T04:46:49;11.13;;;4.38;;
48805;SDS011;34625;47.176;27.548;2023-10-13T04:49:16;7.75;;;4.63;;
48805;SDS011;34625;47.176;27.548;2023-10-13T04:51:58;9.00;;;4.10;;
48805;SDS011;34625;47.176;27.548;2023-10-13T04:54:44;10.10;;;4.97;;
48805;SDS011;34625;47.176;27.548;2023-10-13T04:57:31;7.45;;;3.60;;
48805;SDS011;34625;47.176;27.548;2023-10-13T05:00:12;10.68;;;4.47;;
48805;SDS011;34625;47.176;27.548;2023-10-13T05:02:45;15.48;;;4.63;;
48805;SDS011;34625;47.176;27.548;2023-10-13T05:05:31;10.30;;;4.38;;
48805;SDS011;34625;47.176;27.548;2023-10-13T05:08:23;13.15;;;4.22;;
48805;SDS011;34625;47.176;27.548;2023-10-13T05:11:07;8.85;;;4.15;;
48805;SDS011;34625;47.176;27.548;2023-10-13T05:13:52;11.10;;;4.28;;
48805;SDS011;34625;47.176;27.548;2023-10-13T05:16:37;12.20;;;4.43;;
48805;SDS011;34625;47.176;27.548;2023-10-13T05:19:22;9.38;;;4.40;;
48805;SDS011;34625;47.176;27.548;2023-10-13T05:22:06;5.53;;;3.22;;
48805;SDS011;34625;47.176;27.548;2023-10-13T05:24:51;5.85;;;3.08;;
48805;SDS011;34625;47.176;27.548;2023-10-13T05:27:35;8.82;;;2.88;;
48805;SDS011;34625;47.176;27.548;2023-10-13T05:30:19;4.82;;;3.20;;
48805;SDS011;34625;47.176;27.548;2023-10-13T05:33:04;8.00;;;3.60;;
48805;SDS011;34625;47.176;27.548;2023-10-13T05:35:48;4.72;;;3.58;;
48805;SDS011;34625;47.176;27.548;2023-10-13T05:38:33;6.07;;;3.78;;
48805;SDS011;34625;47.176;27.548;2023-10-13T05:41:18;6.68;;;3.50;;
48805;SDS011;34625;47.176;27.548;2023-10-13T05:44:03;6.90;;;2.88;;
48805;SDS011;34625;47.176;27.548;2023-10-13T05:46:48;6.95;;;3.50;;
48805;SDS011;34625;47.176;27.548;2023-10-13T05:49:32;5.05;;;3.17;;
48805;SDS011;34625;47.176;27.548;2023-10-13T05:52:30;6.43;;;3.83;;
48805;SDS011;34625;47.176;27.548;2023-10-13T05:55:14;3.72;;;1.80;;
48805;SDS011;34625;47.176;27.548;2023-10-13T05:57:59;5.82;;;2.08;;
48805;SDS011;34625;47.176;27.548;2023-10-13T06:00:43;3.58;;;2.05;;
48805;SDS011;34625;47.176;27.548;2023-10-13T06:03:28;11.48;;;3.38;;
48805;SDS011;34625;47.176;27.548;2023-10-13T06:06:13;2.70;;;1.80;;
48805;SDS011;34625;47.176;27.548;2023-10-13T06:08:57;2.78;;;2.15;;
48805;SDS011;34625;47.176;27.548;2023-10-13T06:11:42;4.20;;;2.17;;
48805;SDS011;34625;47.176;27.548;2023-10-13T06:14:26;4.65;;;1.70;;
48805;SDS011;34625;47.176;27.548;2023-10-13T06:17:11;5.50;;;2.20;;
48805;SDS011;34625;47.176;27.548;2023-10-13T06:19:55;11.60;;;4.75;;
48805;SDS011;34625;47.176;27.548;2023-10-13T06:22:40;16.85;;;5.78;;
48805;SDS011;34625;47.176;27.548;2023-10-13T06:25:24;16.83;;;5.38;;
48805;SDS011;34625;47.176;27.548;2023-10-13T06:28:09;17.42;;;5.45;;
48805;SDS011;34625;47.176;27.548;2023-10-13T06:30:55;16.27;;;4.97;;
48805;SDS011;34625;47.176;27.548;2023-10-13T06:33:23;10.02;;;5.18;;
48805;SDS011;34625;47.176;27.548;2023-10-13T06:35:57;11.68;;;5.55;;
48805;SDS011;34625;47.176;27.548;2023-10-13T06:38:23;11.35;;;4.68;;
48805;SDS011;34625;47.176;27.548;2023-10-13T06:40:49;19.17;;;6.35;;
48805;SDS011;34625;47.176;27.548;2023-10-13T06:43:18;21.02;;;5.88;;
48805;SDS011;34625;47.176;27.548;2023-10-13T06:45:47;20.15;;;5.95;;
48805;SDS011;34625;47.176;27.548;2023-10-13T06:48:33;8.85;;;4.95;;
48805;SDS011;34625;47.176;27.548;2023-10-13T06:51:02;9.02;;;5.28;;
48805;SDS011;34625;47.176;27.548;2023-10-13T06:56:16;11.35;;;5.10;;
48805;SDS011;34625;47.176;27.548;2023-10-13T06:58:48;9.82;;;4.78;;
48805;SDS011;34625;47.176;27.548;2023-10-13T07:01:14;13.23;;;5.47;;
48805;SDS011;34625;47.176;27.548;2023-10-13T07:03:43;13.15;;;5.82;;
48805;SDS011;34625;47.176;27.548;2023-10-13T07:06:09;11.20;;;5.20;;
48805;SDS011;34625;47.176;27.548;2023-10-13T07:08:43;17.38;;;5.28;;
48805;SDS011;34625;47.176;27.548;2023-10-13T07:11:26;10.45;;;3.88;;
48805;SDS011;34625;47.176;27.548;2023-10-13T07:14:00;19.08;;;5.82;;
48805;SDS011;34625;47.176;27.548;2023-10-13T07:16:42;16.60;;;4.65;;
48805;SDS011;34625;47.176;27.548;2023-10-13T07:19:13;10.10;;;3.38;;
48805;SDS011;34625;47.176;27.548;2023-10-13T07:21:45;6.15;;;3.00;;
48805;SDS011;34625;47.176;27.548;2023-10-13T07:24:12;12.32;;;2.53;;
48805;SDS011;34625;47.176;27.548;2023-10-13T07:26:39;4.53;;;2.95;;
48805;SDS011;34625;47.176;27.548;2023-10-13T07:29:09;5.15;;;2.88;;
48805;SDS011;34625;47.176;27.548;2023-10-13T07:31:35;7.90;;;2.78;;
48805;SDS011;34625;47.176;27.548;2023-10-13T07:34:03;14.90;;;3.10;;
48805;SDS011;34625;47.176;27.548;2023-10-13T07:36:40;9.63;;;4.13;;
48805;SDS011;34625;47.176;27.548;2023-10-13T07:39:08;8.77;;;4.50;;
48805;SDS011;34625;47.176;27.548;2023-10-13T07:41:48;12.02;;;5.85;;
48805;SDS011;34625;47.176;27.548;2023-10-13T07:44:41;18.03;;;5.83;;
48805;SDS011;34625;47.176;27.548;2023-10-13T07:47:11;16.70;;;7.05;;
48805;SDS011;34625;47.176;27.548;2023-10-13T07:49:39;10.85;;;5.82;;
48805;SDS011;34625;47.176;27.548;2023-10-13T07:52:07;6.97;;;4.63;;
48805;SDS011;34625;47.176;27.548;2023-10-13T07:54:49;9.82;;;4.65;;
48805;SDS011;34625;47.176;27.548;2023-10-13T07:57:29;8.65;;;5.32;;
48805;SDS011;34625;47.176;27.548;2023-10-13T07:59:55;7.45;;;3.80;;
48805;SDS011;34625;47.176;27.548;2023-10-13T08:02:37;10.05;;;4.30;;
48805;SDS011;34625;47.176;27.548;2023-10-13T08:05:16;8.75;;;4.88;;
48805;SDS011;34625;47.176;27.548;2023-10-13T08:08:05;6.88;;;4.00;;
48805;SDS011;34625;47.176;27.548;2023-10-13T08:10:40;5.95;;;4.10;;
48805;SDS011;34625;47.176;27.548;2023-10-13T08:13:11;15.07;;;4.53;;
48805;SDS011;34625;47.176;27.548;2023-10-13T08:15:41;6.30;;;3.35;;
48805;SDS011;34625;47.176;27.548;2023-10-13T08:18:13;6.15;;;4.25;;
48805;SDS011;34625;47.176;27.548;2023-10-13T08:21:00;8.70;;;3.80;;
48805;SDS011;34625;47.176;27.548;2023-10-13T08:23:41;7.88;;;4.25;;
48805;SDS011;34625;47.176;27.548;2023-10-13T08:26:22;10.85;;;4.25;;
48805;SDS011;34625;47.176;27.548;2023-10-13T08:28:56;22.92;;;6.30;;
48805;SDS011;34625;47.176;27.548;2023-10-13T08:31:43;9.38;;;5.57;;
48805;SDS011;34625;47.176;27.548;2023-10-13T08:34:35;15.00;;;5.53;;
48805;SDS011;34625;47.176;27.548;2023-10-13T08:37:07;14.70;;;7.90;;
48805;SDS011;34625;47.176;27.548;2023-10-13T08:39:49;18.10;;;8.60;;
48805;SDS011;34625;47.176;27.548;2023-10-13T08:42:36;16.83;;;7.88;;
48805;SDS011;34625;47.176;27.548;2023-10-13T08:45:03;21.42;;;7.80;;
48805;SDS011;34625;47.176;27.548;2023-10-13T08:47:53;19.30;;;8.27;;
48805;SDS011;34625;47.176;27.548;2023-10-13T08:58:42;23.05;;;8.75;;
48805;SDS011;34625;47.176;27.548;2023-10-13T09:01:23;7.88;;;4.75;;
48805;SDS011;34625;47.176;27.548;2023-10-13T09:07:05;7.25;;;4.15;;
48805;SDS011;34625;47.176;27.548;2023-10-13T09:09:44;6.00;;;4.18;;
48805;SDS011;34625;47.176;27.548;2023-10-13T09:12:15;6.90;;;4.38;;
48805;SDS011;34625;47.176;27.548;2023-10-13T09:14:51;9.50;;;4.97;;
48805;SDS011;34625;47.176;27.548;2023-10-13T09:20:38;10.95;;;4.75;;
48805;SDS011;34625;47.176;27.548;2023-10-13T09:23:07;11.95;;;5.68;;
48805;SDS011;34625;47.176;27.548;2023-10-13T09:25:39;12.20;;;5.90;;
48805;SDS011;34625;47.176;27.548;2023-10-13T09:28:23;13.63;;;7.07;;
48805;SDS011;34625;47.176;27.548;2023-10-13T09:30:53;14.40;;;7.18;;
48805;SDS011;34625;47.176;27.548;2023-10-13T09:33:24;12.23;;;6.72;;
48805;SDS011;34625;47.176;27.548;2023-10-13T09:36:15;16.13;;;7.25;;
48805;SDS011;34625;47.176;27.548;2023-10-13T09:38:42;12.00;;;5.65;;
48805;SDS011;34625;47.176;27.548;2023-10-13T09:41:29;16.65;;;7.63;;
48805;SDS011;34625;47.176;27.548;2023-10-13T09:43:57;12.43;;;6.47;;
48805;SDS011;34625;47.176;27.548;2023-10-13T09:46:25;15.65;;;6.53;;
48805;SDS011;34625;47.176;27.548;2023-10-13T09:48:54;16.45;;;7.32;;
48805;SDS011;34625;47.176;27.548;2023-10-13T09:51:40;14.25;;;6.88;;
48805;SDS011;34625;47.176;27.548;2023-10-13T09:56:58;8.63;;;5.30;;
48805;SDS011;34625;47.176;27.548;2023-10-13T09:59:38;11.15;;;5.80;;
48805;SDS011;34625;47.176;27.548;2023-10-13T10:02:17;11.70;;;6.35;;
48805;SDS011;34625;47.176;27.548;2023-10-13T10:07:36;12.13;;;5.95;;
48805;SDS011;34625;47.176;27.548;2023-10-13T10:10:05;7.90;;;4.70;;
48805;SDS011;34625;47.176;27.548;2023-10-13T10:15:34;11.02;;;5.57;;
48805;SDS011;34625;47.176;27.548;2023-10-13T10:18:18;13.23;;;5.10;;
48805;SDS011;34625;47.176;27.548;2023-10-13T10:20:51;9.25;;;4.90;;
48805;SDS011;34625;47.176;27.548;2023-10-13T10:23:28;9.25;;;5.07;;
48805;SDS011;34625;47.176;27.548;2023-10-13T10:25:54;7.68;;;4.53;;
48805;SDS011;34625;47.176;27.548;2023-10-13T10:28:35;8.27;;;5.22;;
48805;SDS011;34625;47.176;27.548;2023-10-13T10:31:05;10.38;;;4.20;;
48805;SDS011;34625;47.176;27.548;2023-10-13T10:33:41;10.55;;;4.80;;
48805;SDS011;34625;47.176;27.548;2023-10-13T10:36:08;4.93;;;3.80;;
48805;SDS011;34625;47.176;27.548;2023-10-13T10:38:52;12.00;;;5.90;;
48805;SDS011;34625;47.176;27.548;2023-10-13T10:41:28;7.30;;;4.07;;
48805;SDS011;34625;47.176;27.548;2023-10-13T10:44:13;5.32;;;3.55;;
48805;SDS011;34625;47.176;27.548;2023-10-13T10:46:44;9.50;;;4.28;;
48805;SDS011;34625;47.176;27.548;2023-10-13T10:49:26;8.63;;;4.45;;
48805;SDS011;34625;47.176;27.548;2023-10-13T10:51:59;10.57;;;4.35;;
48805;SDS011;34625;47.176;27.548;2023-10-13T10:54:33;8.85;;;4.25;;
48805;SDS011;34625;47.176;27.548;2023-10-13T10:56:59;9.93;;;4.72;;
48805;SDS011;34625;47.176;27.548;2023-10-13T10:59:43;12.10;;;5.47;;
48805;SDS011;34625;47.176;27.548;2023-10-13T11:02:10;9.32;;;4.90;;
48805;SDS011;34625;47.176;27.548;2023-10-13T11:04:40;14.50;;;6.85;;
48805;SDS011;34625;47.176;27.548;2023-10-13T11:07:25;8.50;;;5.00;;
48805;SDS011;34625;47.176;27.548;2023-10-13T11:09:53;7.60;;;5.15;;
48805;SDS011;34625;47.176;27.548;2023-10-13T11:12:32;8.73;;;5.50;;
48805;SDS011;34625;47.176;27.548;2023-10-13T11:15:08;9.27;;;4.72;;
48805;SDS011;34625;47.176;27.548;2023-10-13T11:17:58;6.72;;;4.05;;
48805;SDS011;34625;47.176;27.548;2023-10-13T11:20:24;7.10;;;4.30;;
48805;SDS011;34625;47.176;27.548;2023-10-13T11:23:13;5.53;;;3.92;;
48805;SDS011;34625;47.176;27.548;2023-10-13T11:25:40;5.93;;;4.38;;
48805;SDS011;34625;47.176;27.548;2023-10-13T11:30:42;4.93;;;3.60;;
48805;SDS011;34625;47.176;27.548;2023-10-13T11:33:15;4.97;;;3.55;;
48805;SDS011;34625;47.176;27.548;2023-10-13T11:35:49;7.45;;;3.83;;
48805;SDS011;34625;47.176;27.548;2023-10-13T11:38:18;7.97;;;3.90;;
48805;SDS011;34625;47.176;27.548;2023-10-13T11:41:00;10.38;;;5.15;;
48805;SDS011;34625;47.176;27.548;2023-10-13T11:43:37;5.97;;;3.83;;
48805;SDS011;34625;47.176;27.548;2023-10-13T11:46:11;5.10;;;3.63;;
48805;SDS011;34625;47.176;27.548;2023-10-13T11:48:41;7.57;;;4.13;;
48805;SDS011;34625;47.176;27.548;2023-10-13T11:51:09;7.80;;;3.95;;
48805;SDS011;34625;47.176;27.548;2023-10-13T11:53:57;8.68;;;4.45;;
48805;SDS011;34625;47.176;27.548;2023-10-13T11:56:25;9.70;;;3.78;;
48805;SDS011;34625;47.176;27.548;2023-10-13T11:58:51;11.07;;;4.63;;
48805;SDS011;34625;47.176;27.548;2023-10-13T12:01:17;11.55;;;4.10;;
48805;SDS011;34625;47.176;27.548;2023-10-13T12:03:44;6.97;;;4.13;;
48805;SDS011;34625;47.176;27.548;2023-10-13T12:06:30;5.00;;;3.58;;
48805;SDS011;34625;47.176;27.548;2023-10-13T12:09:00;6.60;;;3.28;;
48805;SDS011;34625;47.176;27.548;2023-10-13T12:11:47;7.97;;;4.38;;
48805;SDS011;34625;47.176;27.548;2023-10-13T12:14:16;9.32;;;3.95;;
48805;SDS011;34625;47.176;27.548;2023-10-13T12:17:02;7.32;;;3.75;;
48805;SDS011;34625;47.176;27.548;2023-10-13T12:19:29;6.82;;;3.38;;
48805;SDS011;34625;47.176;27.548;2023-10-13T12:21:56;6.78;;;4.05;;
48805;SDS011;34625;47.176;27.548;2023-10-13T12:24:23;10.50;;;4.32;;
48805;SDS011;34625;47.176;27.548;2023-10-13T12:27:05;7.82;;;3.33;;
48805;SDS011;34625;47.176;27.548;2023-10-13T12:29:47;9.15;;;3.72;;
48805;SDS011;34625;47.176;27.548;2023-10-13T12:32:14;6.70;;;3.47;;
48805;SDS011;34625;47.176;27.548;2023-10-13T12:34:46;8.13;;;3.45;;
48805;SDS011;34625;47.176;27.548;2023-10-13T12:37:28;7.22;;;3.45;;
48805;SDS011;34625;47.176;27.548;2023-10-13T12:40:05;8.65;;;4.63;;
48805;SDS011;34625;47.176;27.548;2023-10-13T12:42:50;7.60;;;3.50;;
48805;SDS011;34625;47.176;27.548;2023-10-13T12:45:55;5.88;;;3.63;;
48805;SDS011;34625;47.176;27.548;2023-10-13T12:48:39;9.07;;;3.50;;
48805;SDS011;34625;47.176;27.548;2023-10-13T12:51:21;5.38;;;3.03;;
48805;SDS011;34625;47.176;27.548;2023-10-13T12:53:48;6.57;;;3.40;;
48805;SDS011;34625;47.176;27.548;2023-10-13T12:56:15;6.75;;;3.15;;
48805;SDS011;34625;47.176;27.548;2023-10-13T12:58:44;6.60;;;3.20;;
48805;SDS011;34625;47.176;27.548;2023-10-13T13:01:20;6.72;;;2.97;;
48805;SDS011;34625;47.176;27.548;2023-10-13T13:03:48;5.82;;;3.40;;
48805;SDS011;34625;47.176;27.548;2023-10-13T13:06:21;5.25;;;3.40;;
48805;SDS011;34625;47.176;27.548;2023-10-13T13:08:52;6.25;;;2.97;;
48805;SDS011;34625;47.176;27.548;2023-10-13T13:11:18;4.72;;;2.80;;
48805;SDS011;34625;47.176;27.548;2023-10-13T13:13:45;7.93;;;3.47;;
48805;SDS011;34625;47.176;27.548;2023-10-13T13:16:15;7.00;;;3.40;;
48805;SDS011;34625;47.176;27.548;2023-10-13T13:18:49;5.47;;;3.40;;
48805;SDS011;34625;47.176;27.548;2023-10-13T13:21:15;6.68;;;4.13;;
48805;SDS011;34625;47.176;27.548;2023-10-13T13:23:52;5.93;;;3.17;;
48805;SDS011;34625;47.176;27.548;2023-10-13T13:26:21;6.82;;;3.95;;
48805;SDS011;34625;47.176;27.548;2023-10-13T13:28:48;5.00;;;2.50;;
48805;SDS011;34625;47.176;27.548;2023-10-13T13:31:17;10.55;;;3.55;;
48805;SDS011;34625;47.176;27.548;2023-10-13T13:33:44;4.57;;;2.53;;
48805;SDS011;34625;47.176;27.548;2023-10-13T13:36:12;8.35;;;3.63;;
48805;SDS011;34625;47.176;27.548;2023-10-13T13:38:42;5.28;;;2.50;;
48805;SDS011;34625;47.176;27.548;2023-10-13T13:41:14;8.43;;;3.53;;
48805;SDS011;34625;47.176;27.548;2023-10-13T13:43:44;5.50;;;3.58;;
48805;SDS011;34625;47.176;27.548;2023-10-13T13:46:26;4.47;;;3.05;;
48805;SDS011;34625;47.176;27.548;2023-10-13T13:48:58;7.25;;;3.45;;
48805;SDS011;34625;47.176;27.548;2023-10-13T13:51:28;11.27;;;3.95;;
48805;SDS011;34625;47.176;27.548;2023-10-13T13:53:57;17.65;;;4.57;;
48805;SDS011;34625;47.176;27.548;2023-10-13T13:56:24;8.27;;;4.35;;
48805;SDS011;34625;47.176;27.548;2023-10-13T13:58:52;8.65;;;4.10;;
48805;SDS011;34625;47.176;27.548;2023-10-13T14:01:19;11.25;;;4.50;;
48805;SDS011;34625;47.176;27.548;2023-10-13T14:03:51;7.35;;;4.15;;
48805;SDS011;34625;47.176;27.548;2023-10-13T14:06:18;14.00;;;4.50;;
48805;SDS011;34625;47.176;27.548;2023-10-13T14:08:54;16.08;;;4.28;;
48805;SDS011;34625;47.176;27.548;2023-10-13T14:11:23;12.82;;;4.20;;
48805;SDS011;34625;47.176;27.548;2023-10-13T14:16:40;14.30;;;4.05;;
48805;SDS011;34625;47.176;27.548;2023-10-13T14:19:11;13.02;;;4.55;;
48805;SDS011;34625;47.176;27.548;2023-10-13T14:21:37;10.90;;;5.03;;
48805;SDS011;34625;47.176;27.548;2023-10-13T14:24:04;14.55;;;4.75;;
48805;SDS011;34625;47.176;27.548;2023-10-13T14:26:38;14.38;;;4.57;;
48805;SDS011;34625;47.176;27.548;2023-10-13T14:29:04;11.38;;;4.45;;
48805;SDS011;34625;47.176;27.548;2023-10-13T14:31:33;8.88;;;3.63;;
48805;SDS011;34625;47.176;27.548;2023-10-13T14:34:04;10.82;;;4.40;;
48805;SDS011;34625;47.176;27.548;2023-10-13T14:36:32;15.07;;;4.25;;
48805;SDS011;34625;47.176;27.548;2023-10-13T14:39:01;10.38;;;4.28;;
48805;SDS011;34625;47.176;27.548;2023-10-13T14:41:35;9.32;;;4.28;;
48805;SDS011;34625;47.176;27.548;2023-10-13T14:44:02;10.45;;;4.20;;
48805;SDS011;34625;47.176;27.548;2023-10-13T14:46:30;7.93;;;3.53;;
48805;SDS011;34625;47.176;27.548;2023-10-13T14:48:57;6.50;;;3.15;;
48805;SDS011;34625;47.176;27.548;2023-10-13T14:51:26;9.77;;;3.80;;
48805;SDS011;34625;47.176;27.548;2023-10-13T14:53:54;8.05;;;3.70;;
48805;SDS011;34625;47.176;27.548;2023-10-13T14:56:25;14.02;;;4.18;;
48805;SDS011;34625;47.176;27.548;2023-10-13T14:58:52;8.10;;;3.83;;
48805;SDS011;34625;47.176;27.548;2023-10-13T15:01:20;11.68;;;3.67;;
48805;SDS011;34625;47.176;27.548;2023-10-13T15:03:50;14.95;;;5.05;;
48805;SDS011;34625;47.176;27.548;2023-10-13T15:06:24;11.82;;;5.20;;
48805;SDS011;34625;47.176;27.548;2023-10-13T15:08:55;12.48;;;6.50;;
48805;SDS011;34625;47.176;27.548;2023-10-13T15:11:23;6.82;;;4.28;;
48805;SDS011;34625;47.176;27.548;2023-10-13T15:13:52;10.98;;;4.50;;
48805;SDS011;34625;47.176;27.548;2023-10-13T15:16:20;7.63;;;3.80;;
48805;SDS011;34625;47.176;27.548;2023-10-13T15:18:47;8.07;;;4.10;;
48805;SDS011;34625;47.176;27.548;2023-10-13T15:21:21;10.20;;;4.28;;
48805;SDS011;34625;47.176;27.548;2023-10-13T15:23:48;8.85;;;3.38;;
48805;SDS011;34625;47.176;27.548;2023-10-13T15:26:17;10.07;;;8.15;;
48805;SDS011;34625;47.176;27.548;2023-10-13T15:28:43;114.65;;;49.95;;
48805;SDS011;34625;47.176;27.548;2023-10-13T15:31:19;145.82;;;40.78;;
48805;SDS011;34625;47.176;27.548;2023-10-13T15:33:51;83.75;;;24.38;;
48805;SDS011;34625;47.176;27.548;2023-10-13T15:36:22;25.50;;;10.85;;
48805;SDS011;34625;47.176;27.548;2023-10-13T15:38:52;16.70;;;7.30;;
48805;SDS011;34625;47.176;27.548;2023-10-13T15:43:48;14.32;;;7.25;;
48805;SDS011;34625;47.176;27.548;2023-10-13T15:46:15;17.27;;;7.28;;
48805;SDS011;34625;47.176;27.548;2023-10-13T15:48:42;13.23;;;6.97;;
48805;SDS011;34625;47.176;27.548;2023-10-13T15:51:11;12.90;;;7.25;;